Main page
METAR-TAF:

METAR-TAF

Airports :

Angers – Loire Airport

Angers, France

latitude: 47-33-37N, longitude: 000-18-44W, elevation: 59 m

Current weather observation

The report was made 16 minutes ago, at 02:30 UTC
Calm wind
Temperature 12°C
Humidity 94%
Pressure 1025 hPa
Visibility 10 km or more
no clouds below 1500 m and no cumulonimbus

METAR: LFJR 190230Z AUTO 00000KT CAVOK 12/11 Q1025

Time: 04:46 (02:46 UTC)

Forecast

The report was made 15 hours and 46 minutes ago, at 11:00 UTC
Forecast valid from 18 at 12 UTC to 18 at 21 UTC
Wind 5 kt from the West
Visibility 10 km or more
Broken clouds at a height of 3000 ft

TAF: LFJR 181100Z 1812/1821 28005KT 9999 BKN030

Weather observations and forecasts of more than 4000 airports (METAR and TAF reports).

The available stations are represented by yellow and red dots on the map.

Hover mouse over dot to see the name of the station.

Then click to see weather observations and forecasts.

To change the map : click on the green buttons with a black cross to zoom in, on the green button with a dash to zoom out, or on the green arrows for adjacent maps.


METAR-TAF: